METAR UND TAF INFORMATION
EDDW 251150Z 31007KT 260V350 9999 FEW022 OVC037 14/08 Q1017 NOSIG

 FLUGHAFENKARTE

 RUNWAY INFORMATION
Runway 05 Runway length 2297 ft Runway width 75 ft
Runway elevation 0 ft Runway displaced threshold 0 ft Runway heading 52
Runway 23 Runway length 2297 ft Runway width 75 ft
Runway elevation 13 ft Runway displaced threshold 0 ft Runway heading 232
Runway 09 Runway length 6693 ft Runway width 148 ft
Runway elevation 13 ft Runway displaced threshold 0 ft Runway heading 88
Runway 27 Runway length 6693 ft Runway width 148 ft
Runway elevation 14 ft Runway displaced threshold 0 ft Runway heading 268

 AIRPORT FREQUENCIES
Type AFIS Name INFO Frequency 125.1 MHZ
Type APP Name RADAR Frequency 124.8 MHZ
Type ATIS Name ATIS Frequency 117.45 MHZ
Type GND Name GND Frequency 121.75 MHZ
Type TWR Name TWR Frequency 120.325 MHZ

 AIRPORT NEAR NAVIGATION AIDS
Type VOR-DME Name Bremen Frequency 117450 KHZ